Terminal Aerodrome Forecast
Issued by NWS Paducah, KY

Home | Current Version | Previous Version | Text Only | Print | Product List | Glossary On
Versions: 1 2 3 4 5 6 7 8 9 10 11 12 13 14 15 16 17 18
000
FTUS43 KPAH 271554 AAB
TAFEVV
TAF AMD
KEVV 271554Z 2716/2812 24005KT 5SM HZ VCTS BKN015CB
     FM271800 23005KT P6SM BKN025 BKN100
     FM280000 00000KT P6SM SCT250
      TEMPO 2808/2812 4SM BR=

USA.gov is the U.S. government's official web portal to all federal, state and local government web resources and services.